Aérodrome :
LOGIN :

S'inscrire | Disclaimer

   EN    FR    IT 

 










Légende :    VFR   VFR Marginal   IFR   IFR Intensif   IFR Très Intensif
Visi : 
Plafond : 
>= 8 km
>= 3000ft
5 à 8 km
1000 à 3000 ft
1500m à 5 km
500 à 1000 ft
800 à 1500m
200 à 500 ft
< 800m
< 200 ft
Symboles :   Orages  Brouillard  Fortes neiges  Fortes précipitations  Vent > 20 kt
SIGMETs :   Divers  Orages  Givrage  Turbulence  Onde Orograph.  Cendres Volcan.






- Altitude de l'aérodrome : 220 ft
- Code IATA : CWL


EGFF - Cardiff Rhoose

DERNIER METAR :
  • 221950Z AUTO 11016KT 9999 -RA SCT036 09/07 Q0990

METARs EXPIRÉS :
  • 221920Z AUTO 09011KT 9999 -RA SCT017/// SCT024/// BKN033/// //////TCU 08/08 Q0990
  • 221850Z AUTO 08010KT 9999 BKN017 08/08 Q0990
  • 221820Z 08009KT 9999 BKN017 08/07 Q0990
  • 221750Z 07010KT 9999 SCT017 BKN030 07/07 Q0990
  • 221720Z 08009KT 9999 FEW008 SCT012 BKN027 07/07 Q0990

TAF TAF EGFF
Valide du 22 à 18h jusqu'au 23 à 18h UTC


221656Z 2218/2318 10012KT 9999 FEW010 BKN035
PROB30
TEMPO 2218/2221 7000 SHRA BKN010
BECMG 2221/2224 06015G25KT 9000 -RA BKN010
BECMG 2300/2303 05010KT BKN007
TEMPO 2300/2318 3000 BR RADZ BKN004
ATIS : +44 1446 729 319



MET'MAP, la Météo Aéronautique d'un coup d'oeil ! - Copyright ORBIFLY Décembre 2007 - Disclaimer

ORBIFLY MET'MAP TEAM :

Programmation & Développement : Alexandra Zaïnal
Conception & Développement : Baudouin d'Aumeries
Co-Programmation & Développement : Marc-Olivier Méhu
Soutien technique & logistique : Manuel Goepfert

Contact : metmap@orbifly.com




SOURCES & CREDITS :

   NOAA